createdAt,value
2023-02-14T00:00:57.044Z,100105.95
2023-02-14T00:02:00.833Z,100108.16
2023-02-14T00:03:01.325Z,100108.03
2023-02-14T00:04:04.120Z,100109.59
2023-02-14T00:05:05.167Z,100105.20
2023-02-14T00:06:08.366Z,100109.11
2023-02-14T00:07:09.967Z,100107.79
2023-02-14T00:08:10.501Z,100111.69
2023-02-14T00:09:14.636Z,100109.11
2023-02-14T00:10:15.163Z,100106.97
2023-02-14T00:11:15.531Z,100106.64
2023-02-14T00:12:16.299Z,100106.06
2023-02-14T00:13:16.740Z,100103.92
2023-02-14T00:14:36.589Z,100102.73
2023-02-14T00:15:36.973Z,100103.38
2023-02-14T00:16:37.356Z,100096.81
2023-02-14T00:17:37.762Z,100098.61
2023-02-14T00:18:56.867Z,100099.89
2023-02-14T00:19:57.497Z,100101.85
2023-02-14T00:21:00.136Z,100104.26
2023-02-14T00:22:01.636Z,100097.73
2023-02-14T00:23:01.999Z,100095.61
2023-02-14T00:24:09.282Z,100098.02
2023-02-14T00:25:09.848Z,100093.58
2023-02-14T00:26:14.484Z,100094.08
2023-02-14T00:27:15.728Z,100099.98
2023-02-14T00:28:16.102Z,100098.65
2023-02-14T00:29:29.563Z,100096.65
2023-02-14T00:30:30.246Z,100098.45
2023-02-14T00:31:31.001Z,100096.39
2023-02-14T00:32:31.551Z,100098.80
2023-02-14T00:33:31.910Z,100101.17
2023-02-14T00:34:35.767Z,100102.52
2023-02-14T00:35:38.008Z,100100.45
2023-02-14T00:36:38.333Z,100105.02
2023-02-14T00:37:38.764Z,100101.57
2023-02-14T00:38:39.223Z,100100.18
2023-02-14T00:39:41.938Z,100103.62
2023-02-14T00:40:42.362Z,100095.55
2023-02-14T00:41:43.707Z,100101.02
2023-02-14T00:42:44.249Z,100101.11
2023-02-14T00:43:46.716Z,100099.42
2023-02-14T00:44:47.287Z,100104.10
2023-02-14T00:45:47.844Z,100103.27
2023-02-14T00:46:48.257Z,100105.80
2023-02-14T00:47:48.882Z,100108.69
2023-02-14T00:48:49.942Z,100107.98
2023-02-14T00:49:50.470Z,100109.67
2023-02-14T00:50:51.997Z,100109.73
2023-02-14T00:51:52.298Z,100110.77
2023-02-14T00:52:52.798Z,100117.05
2023-02-14T00:53:53.876Z,100114.88
2023-02-14T00:54:54.293Z,100114.91
2023-02-14T00:55:54.704Z,100116.55
2023-02-14T00:56:55.096Z,100112.64
2023-02-14T00:57:56.207Z,100114.60
2023-02-14T00:58:56.820Z,100115.02
2023-02-14T00:59:57.161Z,100114.89
2023-02-14T01:00:59.418Z,100113.05
2023-02-14T01:01:59.992Z,100118.80
2023-02-14T01:03:02.696Z,100110.73
2023-02-14T01:04:03.683Z,100106.90
2023-02-14T01:05:04.736Z,100111.61
2023-02-14T01:06:06.539Z,100104.26
2023-02-14T01:07:06.945Z,100105.47
2023-02-14T01:08:08.890Z,100106.12
2023-02-14T01:09:10.721Z,100103.40
2023-02-14T01:10:11.750Z,100104.34
2023-02-14T01:11:16.478Z,100100.41
2023-02-14T01:12:16.927Z,100099.88
2023-02-14T01:13:19.060Z,100098.21
2023-02-14T01:14:19.437Z,100099.45
2023-02-14T01:15:19.839Z,100094.27
2023-02-14T01:16:23.919Z,100096.87
2023-02-14T01:17:24.343Z,100097.41
2023-02-14T01:18:25.029Z,100097.24
2023-02-14T01:19:25.450Z,100101.40
2023-02-14T01:20:26.781Z,100097.48
2023-02-14T01:21:31.340Z,100096.66
2023-02-14T01:22:35.830Z,100099.21
2023-02-14T01:23:36.238Z,100099.43
2023-02-14T01:24:36.534Z,100098.47
2023-02-14T01:25:38.732Z,100099.04
2023-02-14T01:26:39.314Z,100098.23
2023-02-14T01:27:39.775Z,100094.81
2023-02-14T01:28:41.315Z,100095.70
2023-02-14T01:29:42.510Z,100094.85
2023-02-14T01:30:42.884Z,100089.38
2023-02-14T01:31:44.326Z,100091.39
2023-02-14T01:32:44.856Z,100096.65
2023-02-14T01:33:47.416Z,100090.98
2023-02-14T01:34:47.846Z,100091.15
2023-02-14T01:35:48.328Z,100092.71
2023-02-14T01:36:48.733Z,100091.26
2023-02-14T01:37:49.461Z,100089.36
2023-02-14T01:38:59.155Z,100089.38
2023-02-14T01:40:00.003Z,100090.77
2023-02-14T01:41:00.816Z,100084.95
2023-02-14T01:42:01.682Z,100084.56
2023-02-14T01:43:02.090Z,100083.91
2023-02-14T01:44:25.500Z,100081.48
2023-02-14T01:45:27.726Z,100083.25
2023-02-14T01:46:31.718Z,100085.29
2023-02-14T01:47:39.650Z,100085.66
2023-02-14T01:48:40.730Z,100080.86
2023-02-14T01:49:52.124Z,100084.86
2023-02-14T01:50:54.255Z,100083.20
2023-02-14T01:52:03.641Z,100086.24
2023-02-14T01:53:11.580Z,100089.50
2023-02-14T01:54:13.105Z,100086.61
2023-02-14T01:55:22.444Z,100091.19
2023-02-14T01:56:32.207Z,100088.59
2023-02-14T01:57:40.072Z,100086.63
2023-02-14T01:58:45.223Z,100085.00
2023-02-14T02:00:19.769Z,100085.53
2023-02-14T02:01:20.764Z,100088.34
2023-02-14T02:02:23.063Z,100086.06
2023-02-14T02:03:47.351Z,100080.80
2023-02-14T02:04:47.909Z,100081.27
2023-02-14T02:05:55.564Z,100083.24
2023-02-14T02:07:06.258Z,100080.86
2023-02-14T02:08:07.006Z,100085.95
2023-02-14T02:09:41.900Z,100088.36
2023-02-14T02:10:42.586Z,100091.52
2023-02-14T02:11:43.983Z,100089.29
2023-02-14T02:12:44.955Z,100088.40
2023-02-14T02:13:45.329Z,100093.17
2023-02-14T02:14:49.183Z,100087.55
2023-02-14T02:16:11.332Z,100086.33
2023-02-14T02:17:37.061Z,100089.31
2023-02-14T02:18:40.267Z,100092.41
2023-02-14T02:20:14.237Z,100091.06
2023-02-14T02:21:47.695Z,100088.75
2023-02-14T02:23:06.465Z,100078.09
2023-02-14T02:24:12.840Z,100087.20
2023-02-14T02:25:40.628Z,100081.02
2023-02-14T02:26:50.462Z,100083.62
2023-02-14T02:27:59.665Z,100084.67
2023-02-14T02:29:24.717Z,100090.04
2023-02-14T02:31:04.945Z,100091.08
2023-02-14T02:32:35.122Z,100089.42
2023-02-14T02:34:27.073Z,100095.33
2023-02-14T02:35:56.844Z,100093.25
2023-02-14T02:36:57.190Z,100094.52
2023-02-14T02:38:16.995Z,100095.02
2023-02-14T02:39:41.388Z,100098.86
2023-02-14T02:40:51.751Z,100095.67
2023-02-14T02:42:23.093Z,100095.65
2023-02-14T02:44:03.720Z,100092.01
2023-02-14T02:45:57.057Z,100090.48
2023-02-14T02:47:05.977Z,100090.03
2023-02-14T02:48:19.388Z,100087.02
2023-02-14T02:50:00.087Z,100090.58
2023-02-14T02:51:25.067Z,100090.91
2023-02-14T02:52:50.114Z,100098.03
2023-02-14T02:54:03.428Z,100097.20
2023-02-14T02:55:19.870Z,100101.79
2023-02-14T02:56:46.027Z,100096.64
2023-02-14T02:57:51.156Z,100103.23
2023-02-14T02:59:17.436Z,100096.66
2023-02-14T03:00:23.552Z,100103.55
2023-02-14T03:01:31.931Z,100107.33
2023-02-14T03:03:06.373Z,100107.25
2023-02-14T03:04:30.131Z,100110.09
2023-02-14T03:05:33.922Z,100111.27
2023-02-14T03:06:34.483Z,100104.40
2023-02-14T03:07:39.079Z,100103.49
2023-02-14T03:08:43.790Z,100100.42
2023-02-14T03:09:58.521Z,100108.00
2023-02-14T03:11:04.092Z,100103.06
2023-02-14T03:12:20.708Z,100106.84
2023-02-14T03:13:51.454Z,100108.84
2023-02-14T03:15:01.166Z,100117.77
2023-02-14T03:16:25.347Z,100119.98
2023-02-14T03:18:02.004Z,100123.28
2023-02-14T03:20:01.799Z,100125.94
2023-02-14T03:21:11.529Z,100120.95
2023-02-14T03:22:15.725Z,100125.68
2023-02-14T03:23:24.929Z,100130.38
2023-02-14T03:24:41.147Z,100126.39
2023-02-14T03:26:10.005Z,100131.23
2023-02-14T03:27:35.925Z,100134.13
2023-02-14T03:29:23.354Z,100137.25
2023-02-14T03:30:48.409Z,100140.48
2023-02-14T03:32:02.380Z,100138.02
2023-02-14T03:33:16.202Z,100139.66
2023-02-14T03:34:24.335Z,100138.46
2023-02-14T03:36:01.620Z,100136.15
2023-02-14T03:37:14.638Z,100138.41
2023-02-14T03:38:29.159Z,100138.20
2023-02-14T03:39:52.674Z,100140.09
2023-02-14T03:41:02.280Z,100138.72
2023-02-14T03:42:16.517Z,100135.23
2023-02-14T03:43:43.642Z,100136.92
2023-02-14T03:44:48.542Z,100135.05
2023-02-14T03:46:06.281Z,100133.31
2023-02-14T03:47:16.745Z,100129.19
2023-02-14T03:48:23.358Z,100134.44
2023-02-14T03:49:30.367Z,100132.35
2023-02-14T03:50:35.018Z,100135.59
2023-02-14T03:51:38.365Z,100137.83
2023-02-14T03:52:45.535Z,100143.55
2023-02-14T03:53:53.039Z,100141.90
2023-02-14T03:54:59.332Z,100138.80
2023-02-14T03:56:21.567Z,100137.48
2023-02-14T03:57:37.134Z,100132.57
2023-02-14T03:58:45.889Z,100126.45
2023-02-14T03:59:48.054Z,100123.27
2023-02-14T04:00:54.386Z,100125.60
2023-02-14T04:02:04.551Z,100125.16
2023-02-14T04:03:11.847Z,100127.86
2023-02-14T04:04:18.215Z,100132.17
2023-02-14T04:05:26.682Z,100136.84
2023-02-14T04:06:27.203Z,100134.85
2023-02-14T04:07:27.576Z,100133.81
2023-02-14T04:08:29.214Z,100128.79
2023-02-14T04:09:29.615Z,100128.36
2023-02-14T04:10:31.166Z,100127.63
2023-02-14T04:11:35.042Z,100132.60
2023-02-14T04:12:38.080Z,100128.69
2023-02-14T04:13:39.152Z,100132.92
2023-02-14T04:14:40.263Z,100135.16
2023-02-14T04:15:40.756Z,100134.04
2023-02-14T04:17:00.335Z,100133.20
2023-02-14T04:18:19.489Z,100131.48
2023-02-14T04:19:22.633Z,100134.29
2023-02-14T04:20:24.362Z,100135.66
2023-02-14T04:21:25.108Z,100141.09
2023-02-14T04:22:25.628Z,100141.95
2023-02-14T04:23:26.190Z,100140.11
2023-02-14T04:24:26.809Z,100138.83
2023-02-14T04:25:27.312Z,100144.05
2023-02-14T04:26:27.806Z,100141.92
2023-02-14T04:27:28.213Z,100138.50
2023-02-14T04:28:28.772Z,100141.52
2023-02-14T04:29:29.113Z,100143.37
2023-02-14T04:30:29.819Z,100142.90
2023-02-14T04:31:30.455Z,100141.36
2023-02-14T04:32:31.042Z,100140.57
2023-02-14T04:33:33.410Z,100139.53
2023-02-14T04:34:34.728Z,100138.13
2023-02-14T04:35:35.113Z,100135.00
2023-02-14T04:36:35.645Z,100138.02
2023-02-14T04:37:36.077Z,100137.50
2023-02-14T04:38:36.656Z,100139.20
2023-02-14T04:39:38.015Z,100143.60
2023-02-14T04:40:38.437Z,100138.98
2023-02-14T04:41:38.862Z,100138.73
2023-02-14T04:42:39.318Z,100138.02
2023-02-14T04:43:39.725Z,100136.96
2023-02-14T04:44:40.456Z,100134.55
2023-02-14T04:45:40.927Z,100134.11
2023-02-14T04:46:41.579Z,100137.13
2023-02-14T04:47:42.221Z,100138.86
2023-02-14T04:48:42.913Z,100139.02
2023-02-14T04:49:43.352Z,100138.20
2023-02-14T04:50:43.775Z,100138.23
2023-02-14T04:51:45.559Z,100144.39
2023-02-14T04:52:45.933Z,100143.96
2023-02-14T04:53:46.343Z,100146.89
2023-02-14T04:54:48.056Z,100144.60
2023-02-14T04:55:49.887Z,100145.77
2023-02-14T04:56:51.313Z,100143.77
2023-02-14T04:57:51.816Z,100145.09
2023-02-14T04:58:53.631Z,100142.14
2023-02-14T04:59:54.064Z,100142.21
2023-02-14T05:00:54.498Z,100141.07
2023-02-14T05:01:55.121Z,100138.83
2023-02-14T05:02:55.533Z,100140.45
2023-02-14T05:03:56.498Z,100137.23
2023-02-14T05:04:57.072Z,100140.68
2023-02-14T05:05:57.458Z,100141.94
2023-02-14T05:06:57.901Z,100143.63
2023-02-14T05:07:58.400Z,100142.23
2023-02-14T05:09:00.724Z,100144.29
2023-02-14T05:10:01.936Z,100145.81
2023-02-14T05:11:02.595Z,100142.65
2023-02-14T05:12:03.225Z,100137.14
2023-02-14T05:13:03.941Z,100132.21
2023-02-14T05:14:04.444Z,100133.15
2023-02-14T05:15:05.102Z,100138.05
2023-02-14T05:16:05.677Z,100134.10
2023-02-14T05:17:06.415Z,100140.31
2023-02-14T05:18:06.930Z,100147.24
2023-02-14T05:19:07.726Z,100143.61
2023-02-14T05:20:09.400Z,100142.50
2023-02-14T05:21:10.644Z,100142.71
2023-02-14T05:22:11.191Z,100137.72
2023-02-14T05:23:12.970Z,100134.58
2023-02-14T05:24:13.444Z,100136.55
2023-02-14T05:25:13.828Z,100133.27
2023-02-14T05:26:14.671Z,100136.56
2023-02-14T05:27:15.152Z,100139.70
2023-02-14T05:28:15.880Z,100142.80
2023-02-14T05:29:16.317Z,100143.36
2023-02-14T05:30:17.027Z,100144.76
2023-02-14T05:31:17.492Z,100142.02
2023-02-14T05:32:18.177Z,100144.07
2023-02-14T05:33:18.977Z,100145.67
2023-02-14T05:34:20.030Z,100150.56
2023-02-14T05:35:22.468Z,100152.66
2023-02-14T05:36:22.952Z,100154.69
2023-02-14T05:37:23.467Z,100152.69
2023-02-14T05:38:23.958Z,100152.45
2023-02-14T05:39:24.514Z,100154.02
2023-02-14T05:41:25.550Z,100157.83
2023-02-14T05:42:25.997Z,100160.58
2023-02-14T05:43:26.540Z,100160.38
2023-02-14T05:44:27.021Z,100159.48
2023-02-14T05:45:27.378Z,100160.35
2023-02-14T05:46:27.885Z,100162.48
2023-02-14T05:47:28.373Z,100158.55
2023-02-14T05:48:28.888Z,100161.45
2023-02-14T05:49:29.416Z,100160.19
2023-02-14T05:50:29.831Z,100162.23
2023-02-14T05:51:30.993Z,100162.64
2023-02-14T05:52:31.520Z,100162.62
2023-02-14T05:53:33.155Z,100162.45
2023-02-14T05:54:33.734Z,100162.62
2023-02-14T05:55:34.451Z,100164.12
2023-02-14T05:56:35.195Z,100162.06
2023-02-14T05:57:36.023Z,100158.98
2023-02-14T05:58:36.506Z,100165.79
2023-02-14T05:59:36.841Z,100167.10
2023-02-14T06:00:40.937Z,100168.40
2023-02-14T06:01:41.912Z,100174.39
2023-02-14T06:02:42.840Z,100180.91
2023-02-14T06:03:43.367Z,100183.11
2023-02-14T06:04:43.843Z,100183.52
2023-02-14T06:05:44.638Z,100183.86
2023-02-14T06:06:45.068Z,100183.86
2023-02-14T06:07:49.904Z,100181.88
2023-02-14T06:08:50.856Z,100176.66
2023-02-14T06:09:51.261Z,100174.60
2023-02-14T06:10:51.746Z,100175.19
2023-02-14T06:11:55.134Z,100180.11
2023-02-14T06:12:55.770Z,100180.37
2023-02-14T06:13:57.122Z,100181.91
2023-02-14T06:14:57.547Z,100185.83
2023-02-14T06:15:57.964Z,100187.15
2023-02-14T06:16:58.488Z,100187.15
2023-02-14T06:17:59.089Z,100190.23
2023-02-14T06:18:59.581Z,100188.54
2023-02-14T06:20:00.115Z,100192.89
2023-02-14T06:21:01.133Z,100193.69
2023-02-14T06:22:03.362Z,100192.23
2023-02-14T06:23:04.226Z,100188.20
2023-02-14T06:24:04.692Z,100185.27
2023-02-14T06:25:05.996Z,100184.80
2023-02-14T06:26:06.422Z,100185.63
2023-02-14T06:27:06.783Z,100179.80
2023-02-14T06:28:07.146Z,100182.50
2023-02-14T06:29:07.675Z,100188.82
2023-02-14T06:30:09.827Z,100193.84
2023-02-14T06:31:17.661Z,100193.60
2023-02-14T06:32:18.425Z,100190.91
2023-02-14T06:33:19.060Z,100194.75
2023-02-14T06:34:19.656Z,100191.38
2023-02-14T06:35:20.423Z,100191.89
2023-02-14T06:36:22.411Z,100192.60
2023-02-14T06:37:22.930Z,100192.46
2023-02-14T06:38:23.362Z,100197.45
2023-02-14T06:39:23.869Z,100203.09
2023-02-14T06:40:24.461Z,100203.29
2023-02-14T06:41:24.927Z,100201.36
2023-02-14T06:42:25.405Z,100201.15
2023-02-14T06:43:25.855Z,100202.91
2023-02-14T06:44:26.274Z,100197.73
2023-02-14T06:45:26.898Z,100200.55
2023-02-14T06:46:27.557Z,100203.55
2023-02-14T06:47:28.198Z,100205.65
2023-02-14T06:48:29.226Z,100204.19
2023-02-14T06:49:29.705Z,100209.79
2023-02-14T06:50:30.193Z,100210.91
2023-02-14T06:51:30.700Z,100210.81
2023-02-14T06:52:33.474Z,100214.04
2023-02-14T06:53:35.187Z,100217.83
2023-02-14T06:54:35.704Z,100212.85
2023-02-14T06:55:36.147Z,100215.08
2023-02-14T06:56:36.644Z,100215.79
2023-02-14T06:57:37.235Z,100215.70
2023-02-14T06:58:37.710Z,100211.88
2023-02-14T06:59:38.363Z,100213.01
2023-02-14T07:00:41.978Z,100217.90
2023-02-14T07:01:45.612Z,100216.59
2023-02-14T07:02:46.470Z,100218.13
2023-02-14T07:03:47.149Z,100216.70
2023-02-14T07:04:47.816Z,100219.52
2023-02-14T07:05:48.454Z,100217.35
2023-02-14T07:06:48.899Z,100217.02
2023-02-14T07:07:49.493Z,100218.87
2023-02-14T07:08:50.077Z,100224.45
2023-02-14T07:09:51.212Z,100220.55
2023-02-14T07:10:56.401Z,100220.63
2023-02-14T07:11:56.939Z,100219.50
2023-02-14T07:12:57.619Z,100215.45
2023-02-14T07:13:57.982Z,100219.69
2023-02-14T07:14:58.629Z,100218.89
2023-02-14T07:15:59.432Z,100218.13
2023-02-14T07:16:59.821Z,100220.25
2023-02-14T07:18:00.540Z,100217.33
2023-02-14T07:19:01.329Z,100216.00
2023-02-14T07:20:02.774Z,100210.80
2023-02-14T07:21:03.540Z,100213.17
2023-02-14T07:22:04.184Z,100213.84
2023-02-14T07:23:04.729Z,100216.08
2023-02-14T07:24:05.302Z,100219.45
2023-02-14T07:25:07.360Z,100218.26
2023-02-14T07:26:07.839Z,100217.21
2023-02-14T07:27:08.295Z,100214.73
2023-02-14T07:28:08.684Z,100211.20
2023-02-14T07:29:09.129Z,100213.02
2023-02-14T07:30:11.417Z,100215.25
2023-02-14T07:31:12.083Z,100221.70
2023-02-14T07:32:12.802Z,100222.54
2023-02-14T07:33:13.473Z,100220.05
2023-02-14T07:34:14.179Z,100215.84
2023-02-14T07:35:15.360Z,100214.27
2023-02-14T07:36:15.947Z,100214.30
2023-02-14T07:37:17.146Z,100214.52
2023-02-14T07:38:17.628Z,100213.37
2023-02-14T07:39:18.055Z,100214.34
2023-02-14T07:40:21.749Z,100215.54
2023-02-14T07:41:22.721Z,100219.42
2023-02-14T07:42:23.198Z,100217.92
2023-02-14T07:43:23.573Z,100216.75
2023-02-14T07:44:24.394Z,100221.11
2023-02-14T07:45:25.269Z,100222.33
2023-02-14T07:46:25.718Z,100218.98
2023-02-14T07:47:26.265Z,100214.11
2023-02-14T07:48:29.658Z,100214.33
2023-02-14T07:49:31.504Z,100214.78
2023-02-14T07:50:31.955Z,100219.36
2023-02-14T07:51:32.363Z,100221.02
2023-02-14T07:52:32.813Z,100224.27
2023-02-14T07:53:33.282Z,100228.60
2023-02-14T07:54:33.868Z,100229.37
2023-02-14T07:55:34.589Z,100232.70
2023-02-14T07:56:35.469Z,100228.83
2023-02-14T07:57:35.947Z,100227.48
2023-02-14T07:58:36.324Z,100227.18
2023-02-14T07:59:36.804Z,100222.41
2023-02-14T08:00:37.262Z,100220.88
2023-02-14T08:01:37.745Z,100219.18
2023-02-14T08:02:38.191Z,100218.06
2023-02-14T08:03:38.615Z,100216.14
2023-02-14T08:04:38.978Z,100217.77
2023-02-14T08:05:40.653Z,100216.67
2023-02-14T08:06:42.474Z,100223.43
2023-02-14T08:07:43.725Z,100226.72
2023-02-14T08:08:45.109Z,100228.27
2023-02-14T08:09:45.566Z,100220.98
2023-02-14T08:10:46.003Z,100218.89
2023-02-14T08:12:05.165Z,100220.82
2023-02-14T08:13:05.922Z,100218.79
2023-02-14T08:14:06.420Z,100216.77
2023-02-14T08:15:26.568Z,100226.17
2023-02-14T08:16:27.260Z,100225.35
2023-02-14T08:17:27.733Z,100227.59
2023-02-14T08:18:28.162Z,100229.59
2023-02-14T08:19:29.300Z,100232.37
2023-02-14T08:20:29.807Z,100234.88
2023-02-14T08:21:30.684Z,100233.40
2023-02-14T08:22:31.172Z,100233.93
2023-02-14T08:23:32.425Z,100233.42
2023-02-14T08:24:33.220Z,100232.73
2023-02-14T08:25:34.111Z,100236.80
2023-02-14T08:26:36.847Z,100238.20
2023-02-14T08:27:37.272Z,100241.55
2023-02-14T08:28:37.753Z,100244.50
2023-02-14T08:29:38.245Z,100244.66
2023-02-14T08:30:38.862Z,100248.34
2023-02-14T08:31:39.352Z,100245.23
2023-02-14T08:32:40.055Z,100245.49
2023-02-14T08:33:42.444Z,100244.45
2023-02-14T08:34:43.139Z,100245.20
2023-02-14T08:35:44.012Z,100248.94
2023-02-14T08:36:45.084Z,100251.04
2023-02-14T08:37:45.808Z,100251.77
2023-02-14T08:38:49.764Z,100256.55
2023-02-14T08:39:50.272Z,100255.58
2023-02-14T08:40:50.779Z,100253.04
2023-02-14T08:41:51.240Z,100254.86
2023-02-14T08:42:51.781Z,100251.94
2023-02-14T08:43:52.268Z,100244.04
2023-02-14T08:44:52.600Z,100242.41
2023-02-14T08:45:53.492Z,100238.15
2023-02-14T08:46:54.064Z,100244.02
2023-02-14T08:47:54.652Z,100242.45
2023-02-14T08:48:55.944Z,100247.47
2023-02-14T08:49:56.425Z,100252.04
2023-02-14T08:50:57.229Z,100253.66
2023-02-14T08:51:57.846Z,100251.75
2023-02-14T08:52:58.708Z,100253.61
2023-02-14T08:53:59.039Z,100255.02
2023-02-14T08:54:59.535Z,100252.47
2023-02-14T08:56:08.535Z,100249.15
2023-02-14T08:57:08.995Z,100253.33
2023-02-14T08:58:09.467Z,100257.89
2023-02-14T08:59:09.869Z,100258.83
2023-02-14T09:00:10.918Z,100263.66
2023-02-14T09:01:16.375Z,100266.55
2023-02-14T09:02:16.907Z,100265.95
2023-02-14T09:03:17.380Z,100269.54
2023-02-14T09:04:17.843Z,100267.39
2023-02-14T09:05:20.608Z,100265.08
2023-02-14T09:06:21.708Z,100262.66
2023-02-14T09:07:22.405Z,100260.76
2023-02-14T09:08:22.979Z,100260.83
2023-02-14T09:09:23.519Z,100266.98
2023-02-14T09:10:25.787Z,100269.20
2023-02-14T09:11:26.866Z,100264.64
2023-02-14T09:12:27.343Z,100268.65
2023-02-14T09:13:28.198Z,100265.66
2023-02-14T09:14:33.741Z,100262.29
2023-02-14T09:15:34.301Z,100264.42
2023-02-14T09:16:35.115Z,100261.96
2023-02-14T09:17:37.869Z,100261.96
2023-02-14T09:18:39.469Z,100270.48
2023-02-14T09:19:40.819Z,100268.03
2023-02-14T09:20:44.220Z,100269.92
2023-02-14T09:21:44.620Z,100270.92
2023-02-14T09:22:46.549Z,100266.88
2023-02-14T09:23:49.004Z,100269.20
2023-02-14T09:24:49.694Z,100265.36
2023-02-14T09:25:50.424Z,100266.42
2023-02-14T09:26:50.866Z,100272.51
2023-02-14T09:27:51.486Z,100275.89
2023-02-14T09:28:51.941Z,100281.23
2023-02-14T09:29:53.127Z,100286.77
2023-02-14T09:30:54.588Z,100281.84
2023-02-14T09:31:58.963Z,100284.87
2023-02-14T09:32:59.847Z,100280.00
2023-02-14T09:34:19.312Z,100283.65
2023-02-14T09:35:39.150Z,100282.42
2023-02-14T09:36:58.650Z,100285.80
2023-02-14T09:37:59.204Z,100287.52
2023-02-14T09:38:59.669Z,100290.77
2023-02-14T09:40:00.128Z,100287.48
2023-02-14T09:41:06.257Z,100289.11
2023-02-14T09:42:33.351Z,100288.98
2023-02-14T09:43:38.597Z,100289.23
2023-02-14T09:44:46.034Z,100292.16
2023-02-14T09:45:54.448Z,100293.70
2023-02-14T09:47:04.896Z,100289.84
2023-02-14T09:48:28.276Z,100289.80
2023-02-14T09:49:37.494Z,100289.11
2023-02-14T09:51:04.733Z,100293.98
2023-02-14T09:52:12.335Z,100290.70
2023-02-14T09:53:27.098Z,100289.56
2023-02-14T09:54:32.070Z,100288.05
2023-02-14T09:55:51.728Z,100284.76
2023-02-14T09:56:53.274Z,100292.73
2023-02-14T09:57:59.952Z,100293.52
2023-02-14T09:59:14.810Z,100298.41
2023-02-14T10:00:32.699Z,100296.79
2023-02-14T10:01:45.599Z,100296.23
2023-02-14T10:03:32.754Z,100297.96
2023-02-14T10:04:55.478Z,100294.17
2023-02-14T10:06:04.764Z,100290.53
2023-02-14T10:07:25.314Z,100288.55
2023-02-14T10:08:42.857Z,100290.48
2023-02-14T10:10:09.034Z,100291.98
2023-02-14T10:11:19.589Z,100292.36
2023-02-14T10:12:33.098Z,100291.25
2023-02-14T10:13:41.869Z,100291.54
2023-02-14T10:14:43.032Z,100290.38
2023-02-14T10:15:58.406Z,100288.73
2023-02-14T10:17:16.162Z,100286.35
2023-02-14T10:18:40.562Z,100284.38
2023-02-14T10:20:00.955Z,100281.10
2023-02-14T10:21:05.423Z,100285.63
2023-02-14T10:22:19.060Z,100285.89
2023-02-14T10:23:35.457Z,100289.50
2023-02-14T10:24:57.040Z,100287.67
2023-02-14T10:26:11.699Z,100287.23
2023-02-14T10:27:31.028Z,100285.08
2023-02-14T10:28:48.856Z,100283.27
2023-02-14T10:29:49.630Z,100279.95
2023-02-14T10:31:22.593Z,100277.92
2023-02-14T10:33:10.900Z,100277.17
2023-02-14T10:34:22.918Z,100281.27
2023-02-14T10:35:58.900Z,100285.77
2023-02-14T10:37:24.185Z,100283.77
2023-02-14T10:38:33.366Z,100283.92
2023-02-14T10:40:09.446Z,100281.80
2023-02-14T10:41:41.991Z,100284.16
2023-02-14T10:42:48.763Z,100277.66
2023-02-14T10:43:57.998Z,100277.34
2023-02-14T10:45:23.365Z,100276.59
2023-02-14T10:46:36.022Z,100275.89
2023-02-14T10:47:55.023Z,100280.38
2023-02-14T10:49:37.398Z,100282.23
2023-02-14T10:51:14.424Z,100285.12
2023-02-14T10:52:29.391Z,100285.70
2023-02-14T10:54:09.997Z,100282.92
2023-02-14T10:55:37.019Z,100281.28
2023-02-14T10:57:09.345Z,100281.62
2023-02-14T10:58:15.513Z,100286.30
2023-02-14T10:59:48.034Z,100289.46
2023-02-14T11:01:13.049Z,100290.98
2023-02-14T11:02:18.025Z,100290.40
2023-02-14T11:03:19.449Z,100287.27
2023-02-14T11:04:24.572Z,100286.91
2023-02-14T11:05:34.283Z,100285.71
2023-02-14T11:06:34.663Z,100284.95
2023-02-14T11:07:35.160Z,100283.55
2023-02-14T11:08:39.875Z,100278.51
2023-02-14T11:09:40.534Z,100276.79
2023-02-14T11:10:41.210Z,100276.13
2023-02-14T11:11:56.218Z,100277.11
2023-02-14T11:12:57.856Z,100274.90
2023-02-14T11:13:58.397Z,100274.85
2023-02-14T11:15:32.861Z,100271.25
2023-02-14T11:16:36.840Z,100270.11
2023-02-14T11:17:37.344Z,100272.27
2023-02-14T11:18:40.292Z,100273.56
2023-02-14T11:19:40.692Z,100270.55
2023-02-14T11:20:41.163Z,100270.52
2023-02-14T11:21:45.641Z,100270.72
2023-02-14T11:22:46.264Z,100267.13
2023-02-14T11:23:50.168Z,100268.73
2023-02-14T11:25:04.729Z,100263.30
2023-02-14T11:26:29.536Z,100263.77
2023-02-14T11:27:30.537Z,100264.95
2023-02-14T11:28:31.697Z,100264.10
2023-02-14T11:29:43.040Z,100263.45
2023-02-14T11:30:48.480Z,100262.59
2023-02-14T11:31:49.538Z,100260.43
2023-02-14T11:32:55.711Z,100259.73
2023-02-14T11:33:58.030Z,100258.31
2023-02-14T11:35:03.593Z,100259.76
2023-02-14T11:36:11.470Z,100258.77
2023-02-14T11:37:42.249Z,100258.98
2023-02-14T11:38:54.100Z,100260.89
2023-02-14T11:39:58.839Z,100256.79
2023-02-14T11:41:00.114Z,100258.11
2023-02-14T11:42:04.032Z,100264.64
2023-02-14T11:43:14.239Z,100262.63
2023-02-14T11:44:21.993Z,100261.84
2023-02-14T11:45:30.183Z,100255.77
2023-02-14T11:46:38.558Z,100248.98
2023-02-14T11:47:45.237Z,100247.81
2023-02-14T11:49:02.321Z,100244.35
2023-02-14T11:50:21.592Z,100246.58
2023-02-14T11:51:33.465Z,100249.48
2023-02-14T11:52:47.747Z,100246.52
2023-02-14T11:53:55.479Z,100249.59
2023-02-14T11:54:58.509Z,100250.36
2023-02-14T11:56:00.141Z,100252.67
2023-02-14T11:57:06.754Z,100248.71
2023-02-14T11:58:27.089Z,100249.71
2023-02-14T11:59:33.906Z,100240.76
2023-02-14T12:00:34.623Z,100241.66
2023-02-14T12:01:38.014Z,100243.11
2023-02-14T12:02:49.325Z,100245.33
2023-02-14T12:03:53.354Z,100245.85
2023-02-14T12:05:16.347Z,100242.27
2023-02-14T12:06:30.746Z,100239.98
2023-02-14T12:07:36.487Z,100242.61
2023-02-14T12:08:38.412Z,100242.14
2023-02-14T12:09:40.786Z,100245.92
2023-02-14T12:10:44.612Z,100244.74
2023-02-14T12:11:58.827Z,100240.74
2023-02-14T12:13:08.302Z,100237.94
2023-02-14T12:14:21.311Z,100237.43
2023-02-14T12:15:39.916Z,100235.89
2023-02-14T12:17:04.146Z,100236.05
2023-02-14T12:18:16.560Z,100239.16
2023-02-14T12:19:26.195Z,100237.79
2023-02-14T12:21:01.279Z,100238.89
2023-02-14T12:22:05.512Z,100235.27
2023-02-14T12:23:29.492Z,100233.75
2023-02-14T12:24:39.867Z,100234.33
2023-02-14T12:25:49.829Z,100240.60
2023-02-14T12:27:16.029Z,100232.92
2023-02-14T12:28:27.136Z,100238.58
2023-02-14T12:29:48.129Z,100238.20
2023-02-14T12:30:49.107Z,100235.80
2023-02-14T12:31:49.989Z,100235.84
2023-02-14T12:33:01.133Z,100235.91
2023-02-14T12:34:03.740Z,100235.20
2023-02-14T12:35:17.264Z,100239.09
2023-02-14T12:36:57.379Z,100236.21
2023-02-14T12:38:15.426Z,100236.91